sensor_id;sensor_type;location;lat;lon;timestamp;P1;durP1;ratioP1;P2;durP2;ratioP2
13605;SDS011;6874;52.084;5.090;2022-10-16T00:01:07;212.10;;;204.50;;
13605;SDS011;6874;52.084;5.090;2022-10-16T00:03:34;203.57;;;196.30;;
13605;SDS011;6874;52.084;5.090;2022-10-16T00:06:00;197.80;;;190.80;;
13605;SDS011;6874;52.084;5.090;2022-10-16T00:08:26;198.63;;;191.50;;
13605;SDS011;6874;52.084;5.090;2022-10-16T00:10:52;205.70;;;198.40;;
13605;SDS011;6874;52.084;5.090;2022-10-16T00:13:23;194.07;;;187.07;;
13605;SDS011;6874;52.084;5.090;2022-10-16T00:15:48;192.00;;;185.23;;
13605;SDS011;6874;52.084;5.090;2022-10-16T00:18:14;193.00;;;186.20;;
13605;SDS011;6874;52.084;5.090;2022-10-16T00:20:39;183.53;;;177.07;;
13605;SDS011;6874;52.084;5.090;2022-10-16T00:23:05;187.53;;;181.03;;
13605;SDS011;6874;52.084;5.090;2022-10-16T00:25:31;177.00;;;170.70;;
13605;SDS011;6874;52.084;5.090;2022-10-16T00:27:58;179.70;;;173.33;;
13605;SDS011;6874;52.084;5.090;2022-10-16T00:30:24;176.00;;;169.83;;
13605;SDS011;6874;52.084;5.090;2022-10-16T00:32:52;174.70;;;168.50;;
13605;SDS011;6874;52.084;5.090;2022-10-16T00:35:18;171.97;;;165.93;;
13605;SDS011;6874;52.084;5.090;2022-10-16T00:37:44;163.43;;;157.70;;
13605;SDS011;6874;52.084;5.090;2022-10-16T00:40:09;168.30;;;162.37;;
13605;SDS011;6874;52.084;5.090;2022-10-16T00:42:35;169.20;;;163.20;;
13605;SDS011;6874;52.084;5.090;2022-10-16T00:45:02;167.10;;;161.20;;
13605;SDS011;6874;52.084;5.090;2022-10-16T00:47:35;172.77;;;166.67;;
13605;SDS011;6874;52.084;5.090;2022-10-16T00:50:18;196.03;;;189.03;;
13605;SDS011;6874;52.084;5.090;2022-10-16T00:52:51;200.00;;;192.93;;
13605;SDS011;6874;52.084;5.090;2022-10-16T00:55:18;195.70;;;188.70;;
13605;SDS011;6874;52.084;5.090;2022-10-16T00:57:44;204.07;;;196.77;;
13605;SDS011;6874;52.084;5.090;2022-10-16T01:00:11;206.73;;;199.33;;
13605;SDS011;6874;52.084;5.090;2022-10-16T01:02:40;215.70;;;208.00;;
13605;SDS011;6874;52.084;5.090;2022-10-16T01:05:06;202.67;;;195.30;;
13605;SDS011;6874;52.084;5.090;2022-10-16T01:13:05;237.40;;;228.90;;
13605;SDS011;6874;52.084;5.090;2022-10-16T01:15:35;240.40;;;231.63;;
13605;SDS011;6874;52.084;5.090;2022-10-16T01:21:13;231.60;;;223.33;;
13605;SDS011;6874;52.084;5.090;2022-10-16T01:23:50;241.57;;;232.87;;
13605;SDS011;6874;52.084;5.090;2022-10-16T01:29:25;202.83;;;195.73;;
13605;SDS011;6874;52.084;5.090;2022-10-16T01:31:59;225.53;;;217.53;;
13605;SDS011;6874;52.084;5.090;2022-10-16T01:34:49;228.60;;;220.43;;
13605;SDS011;6874;52.084;5.090;2022-10-16T01:37:16;198.83;;;191.83;;
13605;SDS011;6874;52.084;5.090;2022-10-16T01:39:50;225.13;;;217.10;;
13605;SDS011;6874;52.084;5.090;2022-10-16T01:42:21;205.17;;;197.83;;
13605;SDS011;6874;52.084;5.090;2022-10-16T01:44:50;210.27;;;202.83;;
13605;SDS011;6874;52.084;5.090;2022-10-16T01:47:17;210.00;;;202.50;;
13605;SDS011;6874;52.084;5.090;2022-10-16T01:49:47;200.27;;;193.03;;
13605;SDS011;6874;52.084;5.090;2022-10-16T01:52:15;210.43;;;202.90;;
13605;SDS011;6874;52.084;5.090;2022-10-16T01:54:45;203.47;;;196.33;;
13605;SDS011;6874;52.084;5.090;2022-10-16T01:57:14;202.97;;;195.77;;
13605;SDS011;6874;52.084;5.090;2022-10-16T01:59:44;211.57;;;204.07;;
13605;SDS011;6874;52.084;5.090;2022-10-16T02:02:12;201.17;;;194.03;;
13605;SDS011;6874;52.084;5.090;2022-10-16T02:04:44;210.30;;;202.93;;
13605;SDS011;6874;52.084;5.090;2022-10-16T02:07:12;198.57;;;191.60;;
13605;SDS011;6874;52.084;5.090;2022-10-16T02:09:39;215.50;;;207.90;;
13605;SDS011;6874;52.084;5.090;2022-10-16T02:12:08;209.57;;;202.10;;
13605;SDS011;6874;52.084;5.090;2022-10-16T02:14:41;190.80;;;184.07;;
13605;SDS011;6874;52.084;5.090;2022-10-16T02:17:14;207.47;;;200.13;;
13605;SDS011;6874;52.084;5.090;2022-10-16T02:19:41;196.43;;;189.50;;
13605;SDS011;6874;52.084;5.090;2022-10-16T02:22:08;211.00;;;203.57;;
13605;SDS011;6874;52.084;5.090;2022-10-16T02:24:43;209.10;;;201.70;;
13605;SDS011;6874;52.084;5.090;2022-10-16T02:27:27;181.30;;;174.97;;
13605;SDS011;6874;52.084;5.090;2022-10-16T02:30:07;187.43;;;180.90;;
13605;SDS011;6874;52.084;5.090;2022-10-16T02:32:39;188.40;;;181.80;;
13605;SDS011;6874;52.084;5.090;2022-10-16T02:35:08;206.53;;;199.23;;
13605;SDS011;6874;52.084;5.090;2022-10-16T02:37:34;224.47;;;216.57;;
13605;SDS011;6874;52.084;5.090;2022-10-16T02:40:01;232.87;;;224.57;;
13605;SDS011;6874;52.084;5.090;2022-10-16T02:42:33;236.57;;;228.13;;
13605;SDS011;6874;52.084;5.090;2022-10-16T02:45:00;233.97;;;225.70;;
13605;SDS011;6874;52.084;5.090;2022-10-16T02:47:26;242.80;;;234.17;;
13605;SDS011;6874;52.084;5.090;2022-10-16T02:49:51;245.17;;;236.33;;
13605;SDS011;6874;52.084;5.090;2022-10-16T02:52:17;241.90;;;233.30;;
13605;SDS011;6874;52.084;5.090;2022-10-16T02:54:43;247.03;;;238.13;;
13605;SDS011;6874;52.084;5.090;2022-10-16T02:57:08;240.67;;;232.13;;
13605;SDS011;6874;52.084;5.090;2022-10-16T02:59:34;241.13;;;232.57;;
13605;SDS011;6874;52.084;5.090;2022-10-16T03:01:59;246.87;;;237.93;;
13605;SDS011;6874;52.084;5.090;2022-10-16T03:04:25;247.23;;;238.33;;
13605;SDS011;6874;52.084;5.090;2022-10-16T03:06:50;245.33;;;236.57;;
13605;SDS011;6874;52.084;5.090;2022-10-16T03:09:16;238.13;;;229.57;;
13605;SDS011;6874;52.084;5.090;2022-10-16T03:11:41;245.13;;;236.40;;
13605;SDS011;6874;52.084;5.090;2022-10-16T03:14:07;244.90;;;236.33;;
13605;SDS011;6874;52.084;5.090;2022-10-16T03:16:32;241.27;;;232.63;;
13605;SDS011;6874;52.084;5.090;2022-10-16T03:18:58;245.43;;;236.63;;
13605;SDS011;6874;52.084;5.090;2022-10-16T03:21:23;250.43;;;241.40;;
13605;SDS011;6874;52.084;5.090;2022-10-16T03:23:49;245.73;;;237.00;;
13605;SDS011;6874;52.084;5.090;2022-10-16T03:26:15;238.10;;;229.63;;
13605;SDS011;6874;52.084;5.090;2022-10-16T03:28:40;245.83;;;237.03;;
13605;SDS011;6874;52.084;5.090;2022-10-16T03:31:06;247.23;;;238.43;;
13605;SDS011;6874;52.084;5.090;2022-10-16T03:33:31;249.13;;;240.20;;
13605;SDS011;6874;52.084;5.090;2022-10-16T03:35:57;244.80;;;235.97;;
13605;SDS011;6874;52.084;5.090;2022-10-16T03:38:23;246.03;;;237.17;;
13605;SDS011;6874;52.084;5.090;2022-10-16T03:40:48;245.17;;;236.37;;
13605;SDS011;6874;52.084;5.090;2022-10-16T03:43:14;256.93;;;247.67;;
13605;SDS011;6874;52.084;5.090;2022-10-16T03:45:39;249.17;;;240.20;;
13605;SDS011;6874;52.084;5.090;2022-10-16T03:48:05;239.63;;;231.00;;
13605;SDS011;6874;52.084;5.090;2022-10-16T03:50:30;243.07;;;234.33;;
13605;SDS011;6874;52.084;5.090;2022-10-16T03:52:56;239.77;;;231.07;;
13605;SDS011;6874;52.084;5.090;2022-10-16T03:55:22;233.80;;;225.30;;
13605;SDS011;6874;52.084;5.090;2022-10-16T03:57:47;237.30;;;228.80;;
13605;SDS011;6874;52.084;5.090;2022-10-16T04:00:13;236.47;;;228.00;;
13605;SDS011;6874;52.084;5.090;2022-10-16T04:02:39;238.30;;;229.67;;
13605;SDS011;6874;52.084;5.090;2022-10-16T04:05:05;231.87;;;223.50;;
13605;SDS011;6874;52.084;5.090;2022-10-16T04:07:30;238.00;;;229.40;;
13605;SDS011;6874;52.084;5.090;2022-10-16T04:09:56;239.03;;;230.33;;
13605;SDS011;6874;52.084;5.090;2022-10-16T04:12:23;232.43;;;224.00;;
13605;SDS011;6874;52.084;5.090;2022-10-16T04:14:49;231.97;;;223.60;;
13605;SDS011;6874;52.084;5.090;2022-10-16T04:17:15;241.87;;;233.07;;
13605;SDS011;6874;52.084;5.090;2022-10-16T04:19:40;249.50;;;240.53;;
13605;SDS011;6874;52.084;5.090;2022-10-16T04:22:06;238.73;;;230.10;;
13605;SDS011;6874;52.084;5.090;2022-10-16T04:24:31;246.93;;;237.93;;
13605;SDS011;6874;52.084;5.090;2022-10-16T04:26:57;247.93;;;238.97;;
13605;SDS011;6874;52.084;5.090;2022-10-16T04:29:22;253.07;;;244.00;;
13605;SDS011;6874;52.084;5.090;2022-10-16T04:31:48;241.67;;;232.93;;
13605;SDS011;6874;52.084;5.090;2022-10-16T04:34:13;244.17;;;235.40;;
13605;SDS011;6874;52.084;5.090;2022-10-16T04:36:39;247.57;;;238.60;;
13605;SDS011;6874;52.084;5.090;2022-10-16T04:39:04;247.23;;;238.33;;
13605;SDS011;6874;52.084;5.090;2022-10-16T04:41:30;254.10;;;245.03;;
13605;SDS011;6874;52.084;5.090;2022-10-16T04:43:55;246.37;;;237.43;;
13605;SDS011;6874;52.084;5.090;2022-10-16T04:46:21;243.07;;;234.40;;
13605;SDS011;6874;52.084;5.090;2022-10-16T04:48:46;254.17;;;244.93;;
13605;SDS011;6874;52.084;5.090;2022-10-16T04:51:12;239.47;;;230.90;;
13605;SDS011;6874;52.084;5.090;2022-10-16T04:53:38;242.50;;;233.80;;
13605;SDS011;6874;52.084;5.090;2022-10-16T04:56:03;251.07;;;242.03;;
13605;SDS011;6874;52.084;5.090;2022-10-16T04:58:29;248.23;;;239.40;;
13605;SDS011;6874;52.084;5.090;2022-10-16T05:00:55;239.97;;;231.30;;
13605;SDS011;6874;52.084;5.090;2022-10-16T05:03:20;242.10;;;233.27;;
13605;SDS011;6874;52.084;5.090;2022-10-16T05:05:46;239.93;;;231.30;;
13605;SDS011;6874;52.084;5.090;2022-10-16T05:08:12;243.80;;;235.03;;
13605;SDS011;6874;52.084;5.090;2022-10-16T05:10:39;249.63;;;240.77;;
13605;SDS011;6874;52.084;5.090;2022-10-16T05:13:05;242.87;;;234.10;;
13605;SDS011;6874;52.084;5.090;2022-10-16T05:15:31;246.40;;;237.53;;
13605;SDS011;6874;52.084;5.090;2022-10-16T05:17:56;242.40;;;233.67;;
13605;SDS011;6874;52.084;5.090;2022-10-16T05:20:22;245.43;;;236.60;;
13605;SDS011;6874;52.084;5.090;2022-10-16T05:22:48;251.77;;;242.70;;
13605;SDS011;6874;52.084;5.090;2022-10-16T05:25:13;240.53;;;231.83;;
13605;SDS011;6874;52.084;5.090;2022-10-16T05:27:39;241.97;;;233.27;;
13605;SDS011;6874;52.084;5.090;2022-10-16T05:30:05;242.63;;;233.90;;
13605;SDS011;6874;52.084;5.090;2022-10-16T05:32:31;236.30;;;227.83;;
13605;SDS011;6874;52.084;5.090;2022-10-16T05:34:56;236.00;;;227.57;;
13605;SDS011;6874;52.084;5.090;2022-10-16T05:37:24;239.60;;;231.10;;
13605;SDS011;6874;52.084;5.090;2022-10-16T05:39:50;243.77;;;235.03;;
13605;SDS011;6874;52.084;5.090;2022-10-16T05:42:16;249.13;;;240.20;;
13605;SDS011;6874;52.084;5.090;2022-10-16T05:44:41;244.47;;;235.73;;
13605;SDS011;6874;52.084;5.090;2022-10-16T05:47:07;238.43;;;229.87;;
13605;SDS011;6874;52.084;5.090;2022-10-16T05:49:33;247.80;;;239.00;;
13605;SDS011;6874;52.084;5.090;2022-10-16T05:51:58;244.70;;;235.97;;
13605;SDS011;6874;52.084;5.090;2022-10-16T05:54:24;238.17;;;229.60;;
13605;SDS011;6874;52.084;5.090;2022-10-16T05:56:49;234.17;;;225.80;;
13605;SDS011;6874;52.084;5.090;2022-10-16T05:59:15;245.87;;;237.07;;
13605;SDS011;6874;52.084;5.090;2022-10-16T06:01:40;245.17;;;236.43;;
13605;SDS011;6874;52.084;5.090;2022-10-16T06:04:06;244.87;;;236.20;;
13605;SDS011;6874;52.084;5.090;2022-10-16T06:06:31;232.40;;;224.17;;
13605;SDS011;6874;52.084;5.090;2022-10-16T06:08:57;229.33;;;221.27;;
13605;SDS011;6874;52.084;5.090;2022-10-16T06:11:25;225.30;;;217.27;;
13605;SDS011;6874;52.084;5.090;2022-10-16T06:13:53;226.20;;;218.13;;
13605;SDS011;6874;52.084;5.090;2022-10-16T06:16:26;228.37;;;220.23;;
13605;SDS011;6874;52.084;5.090;2022-10-16T06:18:52;247.77;;;238.97;;
13605;SDS011;6874;52.084;5.090;2022-10-16T06:21:22;229.43;;;221.33;;
13605;SDS011;6874;52.084;5.090;2022-10-16T06:23:51;234.27;;;225.97;;
13605;SDS011;6874;52.084;5.090;2022-10-16T06:26:18;230.50;;;222.30;;
13605;SDS011;6874;52.084;5.090;2022-10-16T06:28:46;234.57;;;226.23;;
13605;SDS011;6874;52.084;5.090;2022-10-16T06:31:12;229.50;;;221.30;;
13605;SDS011;6874;52.084;5.090;2022-10-16T06:33:38;234.50;;;226.13;;
13605;SDS011;6874;52.084;5.090;2022-10-16T06:36:08;239.33;;;230.83;;
13605;SDS011;6874;52.084;5.090;2022-10-16T06:38:35;229.23;;;221.07;;
13605;SDS011;6874;52.084;5.090;2022-10-16T06:41:02;229.90;;;221.77;;
13605;SDS011;6874;52.084;5.090;2022-10-16T06:43:28;227.00;;;218.97;;
13605;SDS011;6874;52.084;5.090;2022-10-16T06:45:57;230.63;;;222.47;;
13605;SDS011;6874;52.084;5.090;2022-10-16T06:48:24;228.13;;;220.03;;
13605;SDS011;6874;52.084;5.090;2022-10-16T06:51:04;227.10;;;219.00;;
13605;SDS011;6874;52.084;5.090;2022-10-16T06:53:32;202.00;;;194.73;;
13605;SDS011;6874;52.084;5.090;2022-10-16T06:56:09;210.83;;;203.23;;
13605;SDS011;6874;52.084;5.090;2022-10-16T06:58:36;203.53;;;196.07;;
13605;SDS011;6874;52.084;5.090;2022-10-16T07:01:02;210.73;;;203.07;;
13605;SDS011;6874;52.084;5.090;2022-10-16T07:03:28;207.87;;;200.33;;
13605;SDS011;6874;52.084;5.090;2022-10-16T07:05:53;200.77;;;193.43;;
13605;SDS011;6874;52.084;5.090;2022-10-16T07:08:19;185.20;;;178.43;;
13605;SDS011;6874;52.084;5.090;2022-10-16T07:10:44;192.83;;;185.83;;
13605;SDS011;6874;52.084;5.090;2022-10-16T07:13:10;190.40;;;183.53;;
13605;SDS011;6874;52.084;5.090;2022-10-16T07:15:38;181.83;;;175.33;;
13605;SDS011;6874;52.084;5.090;2022-10-16T07:18:04;172.23;;;166.03;;
13605;SDS011;6874;52.084;5.090;2022-10-16T07:20:29;170.10;;;164.00;;
13605;SDS011;6874;52.084;5.090;2022-10-16T07:22:55;170.67;;;164.57;;
13605;SDS011;6874;52.084;5.090;2022-10-16T07:25:20;168.20;;;162.23;;
13605;SDS011;6874;52.084;5.090;2022-10-16T07:27:46;163.83;;;158.03;;
13605;SDS011;6874;52.084;5.090;2022-10-16T07:30:11;154.20;;;148.77;;
13605;SDS011;6874;52.084;5.090;2022-10-16T07:32:37;155.57;;;150.07;;
13605;SDS011;6874;52.084;5.090;2022-10-16T07:35:03;161.60;;;156.00;;
13605;SDS011;6874;52.084;5.090;2022-10-16T07:37:29;150.00;;;144.80;;
13605;SDS011;6874;52.084;5.090;2022-10-16T07:39:54;148.57;;;143.47;;
13605;SDS011;6874;52.084;5.090;2022-10-16T07:42:20;147.53;;;142.43;;
13605;SDS011;6874;52.084;5.090;2022-10-16T07:44:45;144.10;;;139.20;;
13605;SDS011;6874;52.084;5.090;2022-10-16T07:47:11;138.10;;;133.40;;
13605;SDS011;6874;52.084;5.090;2022-10-16T07:49:37;137.00;;;132.33;;
13605;SDS011;6874;52.084;5.090;2022-10-16T07:52:02;137.63;;;132.97;;
13605;SDS011;6874;52.084;5.090;2022-10-16T07:54:28;134.13;;;129.57;;
13605;SDS011;6874;52.084;5.090;2022-10-16T07:56:53;135.33;;;130.80;;
13605;SDS011;6874;52.084;5.090;2022-10-16T07:59:19;132.37;;;127.90;;
13605;SDS011;6874;52.084;5.090;2022-10-16T08:01:44;140.47;;;135.70;;
13605;SDS011;6874;52.084;5.090;2022-10-16T08:04:10;136.30;;;131.63;;
13605;SDS011;6874;52.084;5.090;2022-10-16T08:06:36;138.47;;;133.77;;
13605;SDS011;6874;52.084;5.090;2022-10-16T08:09:03;136.37;;;131.73;;
13605;SDS011;6874;52.084;5.090;2022-10-16T08:11:29;139.87;;;135.10;;
13605;SDS011;6874;52.084;5.090;2022-10-16T08:13:55;145.07;;;140.17;;
13605;SDS011;6874;52.084;5.090;2022-10-16T08:16:20;139.00;;;134.30;;
13605;SDS011;6874;52.084;5.090;2022-10-16T08:18:46;140.97;;;136.20;;
13605;SDS011;6874;52.084;5.090;2022-10-16T08:21:13;138.63;;;133.93;;
13605;SDS011;6874;52.084;5.090;2022-10-16T08:23:40;128.60;;;124.27;;
13605;SDS011;6874;52.084;5.090;2022-10-16T08:26:07;135.07;;;130.47;;
13605;SDS011;6874;52.084;5.090;2022-10-16T08:28:33;134.80;;;130.23;;
13605;SDS011;6874;52.084;5.090;2022-10-16T08:31:10;133.27;;;128.77;;
13605;SDS011;6874;52.084;5.090;2022-10-16T08:33:38;129.03;;;124.73;;
13605;SDS011;6874;52.084;5.090;2022-10-16T08:36:06;132.70;;;128.30;;
13605;SDS011;6874;52.084;5.090;2022-10-16T08:38:32;138.90;;;134.27;;
13605;SDS011;6874;52.084;5.090;2022-10-16T08:41:02;134.50;;;130.07;;
13605;SDS011;6874;52.084;5.090;2022-10-16T08:43:43;126.10;;;121.97;;
13605;SDS011;6874;52.084;5.090;2022-10-16T08:46:37;123.97;;;119.93;;
13605;SDS011;6874;52.084;5.090;2022-10-16T08:49:11;127.13;;;123.00;;
13605;SDS011;6874;52.084;5.090;2022-10-16T08:51:41;127.87;;;123.70;;
13605;SDS011;6874;52.084;5.090;2022-10-16T08:54:15;129.97;;;125.73;;
13605;SDS011;6874;52.084;5.090;2022-10-16T08:56:56;122.63;;;118.63;;
13605;SDS011;6874;52.084;5.090;2022-10-16T08:59:26;125.30;;;121.13;;
13605;SDS011;6874;52.084;5.090;2022-10-16T09:01:51;126.77;;;122.63;;
13605;SDS011;6874;52.084;5.090;2022-10-16T09:10:12;122.03;;;118.03;;
13605;SDS011;6874;52.084;5.090;2022-10-16T09:15:35;140.07;;;135.53;;
13605;SDS011;6874;52.084;5.090;2022-10-16T09:23:19;155.77;;;150.60;;
13605;SDS011;6874;52.084;5.090;2022-10-16T09:25:51;166.97;;;161.37;;
13605;SDS011;6874;52.084;5.090;2022-10-16T09:28:18;172.53;;;166.77;;
13605;SDS011;6874;52.084;5.090;2022-10-16T09:30:44;170.67;;;164.93;;
13605;SDS011;6874;52.084;5.090;2022-10-16T09:33:10;178.03;;;171.97;;
13605;SDS011;6874;52.084;5.090;2022-10-16T09:35:42;188.17;;;181.67;;
13605;SDS011;6874;52.084;5.090;2022-10-16T09:38:20;205.43;;;198.23;;
13605;SDS011;6874;52.084;5.090;2022-10-16T09:40:47;218.57;;;210.77;;
13605;SDS011;6874;52.084;5.090;2022-10-16T09:45:38;243.63;;;234.67;;
13605;SDS011;6874;52.084;5.090;2022-10-16T09:48:11;241.07;;;232.37;;
13605;SDS011;6874;52.084;5.090;2022-10-16T09:50:40;255.93;;;246.50;;
13605;SDS011;6874;52.084;5.090;2022-10-16T09:53:13;267.67;;;257.63;;
13605;SDS011;6874;52.084;5.090;2022-10-16T09:55:49;272.23;;;261.97;;
13605;SDS011;6874;52.084;5.090;2022-10-16T09:58:16;263.50;;;253.47;;
13605;SDS011;6874;52.084;5.090;2022-10-16T10:00:42;272.80;;;262.50;;
13605;SDS011;6874;52.084;5.090;2022-10-16T10:03:33;264.20;;;254.23;;
13605;SDS011;6874;52.084;5.090;2022-10-16T10:08:57;246.13;;;237.07;;
13605;SDS011;6874;52.084;5.090;2022-10-16T10:14:15;222.77;;;214.53;;
13605;SDS011;6874;52.084;5.090;2022-10-16T10:17:22;204.70;;;197.10;;
13605;SDS011;6874;52.084;5.090;2022-10-16T10:19:55;204.63;;;197.13;;
13605;SDS011;6874;52.084;5.090;2022-10-16T10:22:27;223.43;;;215.33;;
13605;SDS011;6874;52.084;5.090;2022-10-16T10:27:45;227.33;;;219.03;;
13605;SDS011;6874;52.084;5.090;2022-10-16T10:36:17;173.50;;;167.23;;
13605;SDS011;6874;52.084;5.090;2022-10-16T10:39:08;147.53;;;142.37;;
13605;SDS011;6874;52.084;5.090;2022-10-16T10:44:30;154.87;;;149.40;;
13605;SDS011;6874;52.084;5.090;2022-10-16T10:47:35;161.47;;;155.70;;
13605;SDS011;6874;52.084;5.090;2022-10-16T10:50:25;152.60;;;147.23;;
13605;SDS011;6874;52.084;5.090;2022-10-16T10:53:03;188.27;;;181.63;;
13605;SDS011;6874;52.084;5.090;2022-10-16T10:55:40;187.40;;;180.77;;
13605;SDS011;6874;52.084;5.090;2022-10-16T11:01:36;200.20;;;193.20;;
13605;SDS011;6874;52.084;5.090;2022-10-16T11:07:18;186.63;;;180.10;;
13605;SDS011;6874;52.084;5.090;2022-10-16T11:10:07;211.43;;;204.03;;
13605;SDS011;6874;52.084;5.090;2022-10-16T11:12:42;207.07;;;199.80;;
13605;SDS011;6874;52.084;5.090;2022-10-16T11:15:32;220.63;;;212.97;;
13605;SDS011;6874;52.084;5.090;2022-10-16T11:18:06;205.33;;;198.17;;
13605;SDS011;6874;52.084;5.090;2022-10-16T11:20:54;211.30;;;203.90;;
13605;SDS011;6874;52.084;5.090;2022-10-16T11:23:28;225.37;;;217.53;;
13605;SDS011;6874;52.084;5.090;2022-10-16T11:26:00;213.97;;;206.53;;
13605;SDS011;6874;52.084;5.090;2022-10-16T11:28:32;227.73;;;219.83;;
13605;SDS011;6874;52.084;5.090;2022-10-16T11:31:11;208.50;;;201.30;;
13605;SDS011;6874;52.084;5.090;2022-10-16T11:36:47;217.50;;;210.00;;
13605;SDS011;6874;52.084;5.090;2022-10-16T11:39:21;214.57;;;207.23;;
13605;SDS011;6874;52.084;5.090;2022-10-16T11:41:53;212.00;;;204.70;;
13605;SDS011;6874;52.084;5.090;2022-10-16T11:44:32;212.50;;;205.23;;
13605;SDS011;6874;52.084;5.090;2022-10-16T11:47:10;206.53;;;199.33;;
13605;SDS011;6874;52.084;5.090;2022-10-16T11:49:45;189.17;;;182.57;;
13605;SDS011;6874;52.084;5.090;2022-10-16T11:55:05;155.13;;;149.73;;
13605;SDS011;6874;52.084;5.090;2022-10-16T11:57:43;157.50;;;152.00;;
13605;SDS011;6874;52.084;5.090;2022-10-16T12:08:35;161.53;;;155.90;;
13605;SDS011;6874;52.084;5.090;2022-10-16T12:11:09;186.07;;;179.67;;
13605;SDS011;6874;52.084;5.090;2022-10-16T12:16:37;179.77;;;173.57;;
13605;SDS011;6874;52.084;5.090;2022-10-16T12:19:10;192.40;;;185.80;;
13605;SDS011;6874;52.084;5.090;2022-10-16T12:21:38;184.47;;;178.13;;
13605;SDS011;6874;52.084;5.090;2022-10-16T12:24:03;197.13;;;190.37;;
13605;SDS011;6874;52.084;5.090;2022-10-16T12:26:34;190.60;;;183.97;;
13605;SDS011;6874;52.084;5.090;2022-10-16T12:29:13;189.33;;;182.80;;
13605;SDS011;6874;52.084;5.090;2022-10-16T12:31:48;182.07;;;175.70;;
13605;SDS011;6874;52.084;5.090;2022-10-16T12:37:27;214.33;;;206.83;;
13605;SDS011;6874;52.084;5.090;2022-10-16T12:39:56;208.97;;;201.67;;
13605;SDS011;6874;52.084;5.090;2022-10-16T12:44:51;239.47;;;231.03;;
13605;SDS011;6874;52.084;5.090;2022-10-16T12:47:51;239.93;;;231.50;;
13605;SDS011;6874;52.084;5.090;2022-10-16T12:52:58;203.50;;;196.37;;
13605;SDS011;6874;52.084;5.090;2022-10-16T12:55:25;221.20;;;213.53;;
13605;SDS011;6874;52.084;5.090;2022-10-16T13:00:50;184.07;;;177.70;;
13605;SDS011;6874;52.084;5.090;2022-10-16T13:20:32;98.07;;;94.83;;
13605;SDS011;6874;52.084;5.090;2022-10-16T13:25:46;106.87;;;103.37;;
13605;SDS011;6874;52.084;5.090;2022-10-16T13:28:31;107.67;;;104.07;;
13605;SDS011;6874;52.084;5.090;2022-10-16T13:30:59;121.57;;;117.50;;
13605;SDS011;6874;52.084;5.090;2022-10-16T13:33:30;128.27;;;123.90;;
13605;SDS011;6874;52.084;5.090;2022-10-16T13:36:01;137.30;;;132.63;;
13605;SDS011;6874;52.084;5.090;2022-10-16T13:38:28;145.30;;;140.30;;
13605;SDS011;6874;52.084;5.090;2022-10-16T13:41:03;139.27;;;134.43;;
13605;SDS011;6874;52.084;5.090;2022-10-16T13:43:44;133.23;;;128.60;;
13605;SDS011;6874;52.084;5.090;2022-10-16T13:46:18;139.90;;;135.07;;
13605;SDS011;6874;52.084;5.090;2022-10-16T13:49:05;161.60;;;156.00;;
13605;SDS011;6874;52.084;5.090;2022-10-16T13:51:53;142.00;;;137.07;;
13605;SDS011;6874;52.084;5.090;2022-10-16T13:54:20;161.30;;;155.70;;
13605;SDS011;6874;52.084;5.090;2022-10-16T13:56:45;183.87;;;177.50;;
13605;SDS011;6874;52.084;5.090;2022-10-16T13:59:53;207.27;;;199.90;;
13605;SDS011;6874;52.084;5.090;2022-10-16T14:02:05;197.70;;;190.70;;
13605;SDS011;6874;52.084;5.090;2022-10-16T14:04:46;202.50;;;195.23;;
13605;SDS011;6874;52.084;5.090;2022-10-16T14:07:18;197.73;;;190.50;;
13605;SDS011;6874;52.084;5.090;2022-10-16T14:09:49;185.73;;;179.07;;
13605;SDS011;6874;52.084;5.090;2022-10-16T14:12:16;191.20;;;184.37;;
13605;SDS011;6874;52.084;5.090;2022-10-16T14:14:42;183.07;;;176.57;;
13605;SDS011;6874;52.084;5.090;2022-10-16T14:19:48;173.90;;;167.70;;
13605;SDS011;6874;52.084;5.090;2022-10-16T14:22:37;165.83;;;159.93;;
13605;SDS011;6874;52.084;5.090;2022-10-16T14:25:24;163.07;;;157.33;;
13605;SDS011;6874;52.084;5.090;2022-10-16T14:28:14;162.33;;;156.53;;
13605;SDS011;6874;52.084;5.090;2022-10-16T14:30:51;159.07;;;153.37;;
13605;SDS011;6874;52.084;5.090;2022-10-16T14:33:31;157.63;;;152.03;;
13605;SDS011;6874;52.084;5.090;2022-10-16T14:38:50;158.77;;;153.17;;
13605;SDS011;6874;52.084;5.090;2022-10-16T14:41:26;149.57;;;144.27;;
13605;SDS011;6874;52.084;5.090;2022-10-16T14:43:54;159.10;;;153.60;;
13605;SDS011;6874;52.084;5.090;2022-10-16T14:46:28;169.77;;;163.90;;
13605;SDS011;6874;52.084;5.090;2022-10-16T14:51:40;162.43;;;156.77;;
13605;SDS011;6874;52.084;5.090;2022-10-16T14:54:09;152.20;;;146.87;;
13605;SDS011;6874;52.084;5.090;2022-10-16T14:56:41;160.33;;;154.83;;
13605;SDS011;6874;52.084;5.090;2022-10-16T14:59:27;167.30;;;161.53;;
13605;SDS011;6874;52.084;5.090;2022-10-16T15:01:57;168.17;;;162.40;;
13605;SDS011;6874;52.084;5.090;2022-10-16T15:04:22;167.63;;;161.77;;
13605;SDS011;6874;52.084;5.090;2022-10-16T15:06:48;171.70;;;165.63;;
13605;SDS011;6874;52.084;5.090;2022-10-16T15:09:13;176.10;;;169.87;;
13605;SDS011;6874;52.084;5.090;2022-10-16T15:11:39;175.80;;;169.50;;
13605;SDS011;6874;52.084;5.090;2022-10-16T15:14:05;181.07;;;174.53;;
13605;SDS011;6874;52.084;5.090;2022-10-16T15:16:31;186.00;;;179.17;;
13605;SDS011;6874;52.084;5.090;2022-10-16T15:18:56;186.33;;;179.53;;
13605;SDS011;6874;52.084;5.090;2022-10-16T15:21:26;195.03;;;187.87;;
13605;SDS011;6874;52.084;5.090;2022-10-16T15:23:54;190.00;;;182.97;;
13605;SDS011;6874;52.084;5.090;2022-10-16T15:26:22;192.00;;;184.90;;
13605;SDS011;6874;52.084;5.090;2022-10-16T15:28:48;183.60;;;176.83;;
13605;SDS011;6874;52.084;5.090;2022-10-16T15:31:14;185.17;;;178.43;;
13605;SDS011;6874;52.084;5.090;2022-10-16T15:33:39;179.07;;;172.53;;
13605;SDS011;6874;52.084;5.090;2022-10-16T15:36:05;181.67;;;175.03;;
13605;SDS011;6874;52.084;5.090;2022-10-16T15:38:31;175.80;;;169.50;;
13605;SDS011;6874;52.084;5.090;2022-10-16T15:40:57;159.87;;;154.07;;
13605;SDS011;6874;52.084;5.090;2022-10-16T15:43:22;164.33;;;158.43;;
13605;SDS011;6874;52.084;5.090;2022-10-16T15:46:22;157.60;;;152.03;;
13605;SDS011;6874;52.084;5.090;2022-10-16T15:48:41;175.17;;;168.83;;
13605;SDS011;6874;52.084;5.090;2022-10-16T15:51:08;154.90;;;149.40;;
13605;SDS011;6874;52.084;5.090;2022-10-16T15:53:34;154.57;;;149.03;;
13605;SDS011;6874;52.084;5.090;2022-10-16T15:56:07;150.90;;;145.53;;
13605;SDS011;6874;52.084;5.090;2022-10-16T15:58:35;156.87;;;151.30;;
13605;SDS011;6874;52.084;5.090;2022-10-16T16:01:00;159.10;;;153.47;;
13605;SDS011;6874;52.084;5.090;2022-10-16T16:03:27;153.33;;;147.93;;
13605;SDS011;6874;52.084;5.090;2022-10-16T16:05:53;144.43;;;139.33;;
13605;SDS011;6874;52.084;5.090;2022-10-16T16:08:19;151.07;;;145.77;;
13605;SDS011;6874;52.084;5.090;2022-10-16T16:10:45;152.00;;;146.60;;